createdAt,value
2023-04-23T00:00:54.893Z,16.40
2023-04-23T00:03:27.579Z,15.40
2023-04-23T00:05:56.694Z,14.40
2023-04-23T00:08:26.653Z,14.70
2023-04-23T00:10:55.378Z,15.90
2023-04-23T00:13:24.350Z,14.80
2023-04-23T00:15:52.716Z,14.20
2023-04-23T00:18:22.429Z,14.00
2023-04-23T00:20:50.705Z,13.90
2023-04-23T00:23:18.840Z,11.70
2023-04-23T00:25:46.989Z,10.80
2023-04-23T00:28:16.424Z,12.40
2023-04-23T00:30:45.976Z,10.20
2023-04-23T00:33:14.748Z,12.40
2023-04-23T00:35:42.915Z,11.40
2023-04-23T00:38:12.077Z,12.80
2023-04-23T00:40:40.712Z,13.60
2023-04-23T00:43:10.407Z,13.60
2023-04-23T00:45:40.524Z,12.40
2023-04-23T00:48:09.791Z,12.10
2023-04-23T00:50:38.596Z,13.30
2023-04-23T00:53:07.709Z,11.90
2023-04-23T00:55:37.021Z,13.40
2023-04-23T00:58:06.896Z,13.60
2023-04-23T01:00:36.755Z,12.90
2023-04-23T01:03:05.086Z,12.90
2023-04-23T01:05:33.439Z,13.40
2023-04-23T01:08:02.465Z,13.10
2023-04-23T01:10:32.820Z,13.00
2023-04-23T01:13:01.002Z,12.30
2023-04-23T01:15:29.707Z,12.60
2023-04-23T01:17:58.649Z,12.20
2023-04-23T01:20:26.855Z,11.00
2023-04-23T01:22:55.689Z,12.30
2023-04-23T01:25:25.007Z,14.20
2023-04-23T01:27:53.363Z,12.30
2023-04-23T01:30:22.199Z,13.00
2023-04-23T01:32:50.449Z,11.70
2023-04-23T01:35:18.657Z,12.30
2023-04-23T01:37:46.941Z,11.10
2023-04-23T01:40:15.057Z,10.50
2023-04-23T01:42:43.233Z,11.90
2023-04-23T01:45:12.098Z,12.80
2023-04-23T01:47:42.086Z,14.00
2023-04-23T01:50:10.380Z,12.10
2023-04-23T01:52:38.993Z,11.30
2023-04-23T01:55:07.447Z,13.30
2023-04-23T01:57:36.383Z,12.40
2023-04-23T02:00:08.539Z,12.90
2023-04-23T02:02:44.226Z,11.50
2023-04-23T02:05:13.742Z,12.20
2023-04-23T02:07:42.757Z,10.60
2023-04-23T02:10:11.111Z,10.60
2023-04-23T02:12:41.913Z,10.20
2023-04-23T02:15:11.472Z,9.30
2023-04-23T02:17:42.634Z,10.10
2023-04-23T02:20:11.154Z,10.20
2023-04-23T02:22:40.242Z,10.10
2023-04-23T02:25:08.524Z,8.10
2023-04-23T02:27:38.084Z,8.70
2023-04-23T02:30:08.706Z,8.70
2023-04-23T02:32:38.136Z,8.80
2023-04-23T02:35:07.448Z,7.20
2023-04-23T02:37:37.164Z,8.10
2023-04-23T02:40:06.784Z,9.50
2023-04-23T02:42:35.645Z,9.30
2023-04-23T02:45:04.793Z,10.30
2023-04-23T02:47:32.974Z,9.90
2023-04-23T02:50:06.612Z,9.70
2023-04-23T02:52:34.969Z,10.00
2023-04-23T02:55:04.044Z,9.60
2023-04-23T02:57:32.958Z,10.60
2023-04-23T03:00:01.323Z,9.30
2023-04-23T03:02:35.959Z,9.60
2023-04-23T03:05:04.988Z,8.80
2023-04-23T03:07:33.550Z,8.90
2023-04-23T03:10:01.755Z,8.30
2023-04-23T03:12:30.547Z,8.50
2023-04-23T03:14:58.652Z,7.30
2023-04-23T03:17:27.890Z,7.80
2023-04-23T03:19:57.700Z,7.60
2023-04-23T03:22:26.981Z,8.30
2023-04-23T03:24:55.389Z,7.30
2023-04-23T03:27:23.767Z,7.30
2023-04-23T03:29:52.909Z,7.60
2023-04-23T03:32:21.885Z,7.40
2023-04-23T03:34:50.127Z,7.20
2023-04-23T03:37:18.237Z,7.60
2023-04-23T03:39:47.135Z,7.40
2023-04-23T03:42:15.378Z,6.40
2023-04-23T03:44:45.539Z,7.00
2023-04-23T03:47:14.028Z,6.20
2023-04-23T03:49:42.549Z,6.20
2023-04-23T03:52:10.918Z,6.50
2023-04-23T03:54:40.302Z,6.80
2023-04-23T03:57:13.330Z,7.10
2023-04-23T03:59:56.746Z,6.30
2023-04-23T04:02:26.130Z,6.90
2023-04-23T04:04:55.440Z,7.10
2023-04-23T04:07:26.302Z,6.70
2023-04-23T04:09:57.513Z,6.50
2023-04-23T04:12:27.456Z,6.90
2023-04-23T04:14:55.614Z,7.00
2023-04-23T04:17:23.825Z,7.50
2023-04-23T04:19:52.546Z,7.40
2023-04-23T04:22:20.904Z,7.30
2023-04-23T04:24:52.194Z,7.50
2023-04-23T04:27:20.993Z,7.40
2023-04-23T04:29:49.716Z,7.80
2023-04-23T04:32:18.353Z,8.00
2023-04-23T04:34:47.092Z,7.30
2023-04-23T04:37:15.202Z,7.70
2023-04-23T04:39:43.489Z,7.60
2023-04-23T04:42:13.256Z,6.90
2023-04-23T04:44:41.943Z,6.80
2023-04-23T04:47:10.985Z,7.80
2023-04-23T04:49:39.241Z,8.30
2023-04-23T04:52:07.542Z,8.00
2023-04-23T04:54:35.795Z,7.50
2023-04-23T04:57:03.921Z,7.90
2023-04-23T04:59:32.024Z,7.10
2023-04-23T05:02:00.576Z,7.40
2023-04-23T05:04:29.093Z,7.40
2023-04-23T05:06:57.391Z,6.80
2023-04-23T05:09:26.034Z,7.40
2023-04-23T05:11:54.308Z,8.10
2023-04-23T05:14:23.202Z,7.00
2023-04-23T05:16:51.431Z,7.80
2023-04-23T05:19:21.187Z,8.30
2023-04-23T05:21:49.382Z,8.60
2023-04-23T05:24:18.290Z,8.20
2023-04-23T05:26:47.428Z,7.90
2023-04-23T05:29:19.532Z,6.70
2023-04-23T05:31:47.938Z,6.90
2023-04-23T05:34:16.159Z,8.20
2023-04-23T05:36:46.793Z,8.60
2023-04-23T05:39:15.105Z,7.60
2023-04-23T05:41:43.276Z,7.80
2023-04-23T05:44:11.489Z,7.50
2023-04-23T05:46:39.681Z,7.80
2023-04-23T05:49:07.793Z,7.80
2023-04-23T05:51:38.600Z,7.90
2023-04-23T05:54:06.870Z,7.60
2023-04-23T05:56:35.322Z,8.00
2023-04-23T05:59:03.566Z,7.10
2023-04-23T06:01:32.139Z,6.50
2023-04-23T06:04:00.834Z,6.80
2023-04-23T06:06:29.689Z,6.80
2023-04-23T06:08:57.809Z,6.10
2023-04-23T06:11:26.169Z,6.70
2023-04-23T06:13:54.403Z,6.00
2023-04-23T06:16:22.920Z,6.20
2023-04-23T06:18:51.407Z,7.50
2023-04-23T06:21:19.834Z,7.30
2023-04-23T06:23:48.484Z,6.30
2023-04-23T06:26:16.627Z,6.40
2023-04-23T06:28:46.093Z,6.00
2023-04-23T06:31:33.211Z,6.40
2023-04-23T06:34:03.954Z,6.50
2023-04-23T06:36:32.549Z,7.00
2023-04-23T06:39:00.732Z,6.90
2023-04-23T06:41:29.092Z,6.30
2023-04-23T06:44:16.114Z,6.50
2023-04-23T06:46:53.712Z,6.20
2023-04-23T06:49:21.890Z,6.50
2023-04-23T06:51:49.988Z,6.70
2023-04-23T06:54:18.397Z,5.90
2023-04-23T06:56:46.578Z,6.60
2023-04-23T06:59:15.318Z,7.10
2023-04-23T07:02:16.066Z,7.00
2023-04-23T07:04:46.956Z,6.50
2023-04-23T07:07:17.602Z,6.50
2023-04-23T07:09:45.844Z,8.00
2023-04-23T07:12:13.954Z,8.00
2023-04-23T07:14:42.439Z,9.10
2023-04-23T07:17:11.606Z,9.20
2023-04-23T07:19:39.984Z,10.40
2023-04-23T07:22:08.215Z,11.10
2023-04-23T07:24:36.401Z,12.10
2023-04-23T07:27:04.504Z,12.30
2023-04-23T07:29:33.527Z,10.70
2023-04-23T07:32:01.825Z,12.40
2023-04-23T07:34:30.740Z,11.60
2023-04-23T07:36:59.228Z,10.50
2023-04-23T07:39:27.600Z,8.90
2023-04-23T07:41:57.005Z,10.10
2023-04-23T07:44:25.540Z,9.30
2023-04-23T07:46:54.194Z,9.60
2023-04-23T07:49:22.924Z,9.90
2023-04-23T07:51:51.482Z,8.80
2023-04-23T07:54:21.372Z,9.10
2023-04-23T07:56:49.700Z,8.90
2023-04-23T07:59:18.467Z,8.70
2023-04-23T08:01:46.618Z,8.60
2023-04-23T08:04:14.945Z,7.90
2023-04-23T08:06:43.433Z,8.20
2023-04-23T08:09:11.594Z,7.80
2023-04-23T08:11:41.202Z,6.20
2023-04-23T08:14:09.586Z,6.20
2023-04-23T08:16:39.133Z,5.80
2023-04-23T08:19:07.659Z,4.40
2023-04-23T08:21:36.534Z,4.20
2023-04-23T08:24:05.304Z,4.50
2023-04-23T08:26:35.487Z,4.70
2023-04-23T08:29:05.452Z,4.40
2023-04-23T08:31:33.827Z,4.70
2023-04-23T08:34:02.868Z,4.90
2023-04-23T08:36:32.217Z,4.70
2023-04-23T08:39:01.041Z,4.50
2023-04-23T08:41:31.773Z,5.50
2023-04-23T08:43:59.840Z,5.50
2023-04-23T08:46:28.172Z,4.90
2023-04-23T08:48:57.091Z,4.70
2023-04-23T08:51:25.887Z,4.30
2023-04-23T08:53:55.454Z,5.00
2023-04-23T08:56:23.678Z,4.80
2023-04-23T08:58:51.905Z,4.20
2023-04-23T09:01:20.127Z,4.20
2023-04-23T09:03:48.771Z,4.00
2023-04-23T09:06:17.840Z,3.70
2023-04-23T09:08:46.313Z,3.70
2023-04-23T09:11:14.679Z,4.50
2023-04-23T09:13:42.808Z,4.20
2023-04-23T09:16:11.580Z,4.00
2023-04-23T09:18:39.781Z,3.80
2023-04-23T09:21:08.018Z,3.40
2023-04-23T09:23:38.651Z,3.30
2023-04-23T09:26:07.990Z,3.20
2023-04-23T09:28:36.866Z,3.20
2023-04-23T09:31:06.479Z,3.60
2023-04-23T09:33:37.894Z,2.70
2023-04-23T09:36:15.209Z,3.20
2023-04-23T09:38:43.350Z,5.20
2023-04-23T09:41:26.118Z,3.90
2023-04-23T09:43:55.215Z,4.30
2023-04-23T09:46:53.079Z,5.10
2023-04-23T09:49:21.388Z,4.20
2023-04-23T09:51:50.465Z,4.20
2023-04-23T09:54:20.080Z,5.30
2023-04-23T09:56:57.428Z,3.60
2023-04-23T09:59:45.412Z,3.80
2023-04-23T10:02:15.032Z,3.80
2023-04-23T10:04:43.527Z,4.10
2023-04-23T10:07:19.564Z,4.50
2023-04-23T10:09:48.693Z,4.00
2023-04-23T10:12:35.708Z,3.80
2023-04-23T10:15:05.741Z,3.60
2023-04-23T10:17:37.870Z,4.00
2023-04-23T10:20:07.684Z,3.90
2023-04-23T10:22:36.379Z,3.70
2023-04-23T10:25:09.659Z,4.30
2023-04-23T10:27:51.131Z,3.90
2023-04-23T10:30:22.566Z,3.90
2023-04-23T10:32:51.743Z,3.50
2023-04-23T10:35:20.608Z,3.80
2023-04-23T10:37:50.164Z,3.80
2023-04-23T10:40:24.373Z,3.60
2023-04-23T10:42:52.690Z,3.30
2023-04-23T10:47:54.069Z,2.90
2023-04-23T10:50:26.381Z,2.40
2023-04-23T10:52:57.543Z,2.40
2023-04-23T10:57:06.642Z,2.80
2023-04-23T10:59:36.725Z,2.00
2023-04-23T11:02:09.385Z,2.50
2023-04-23T11:04:48.054Z,2.40
2023-04-23T11:07:18.098Z,2.30
2023-04-23T11:09:49.441Z,2.40
2023-04-23T11:12:32.454Z,2.30
2023-04-23T11:15:01.819Z,2.80
2023-04-23T11:17:33.375Z,2.80
2023-04-23T11:20:21.586Z,2.90
2023-04-23T11:22:50.398Z,3.00
2023-04-23T11:25:22.237Z,2.60
2023-04-23T11:27:51.623Z,3.20
2023-04-23T11:30:26.463Z,2.50
2023-04-23T11:32:55.374Z,2.70
2023-04-23T11:35:28.785Z,2.80
2023-04-23T11:37:57.171Z,2.90
2023-04-23T11:40:26.146Z,3.00
2023-04-23T11:42:57.856Z,2.80
2023-04-23T11:45:26.722Z,2.30
2023-04-23T11:47:56.409Z,2.70
2023-04-23T11:50:28.883Z,2.60
2023-04-23T11:52:57.150Z,2.60
2023-04-23T11:55:30.985Z,2.50
2023-04-23T11:57:59.772Z,2.80
2023-04-23T12:00:28.170Z,2.50
2023-04-23T12:02:56.587Z,3.40
2023-04-23T12:05:33.972Z,3.60
2023-04-23T12:08:11.333Z,2.20
2023-04-23T12:10:46.986Z,2.50
2023-04-23T12:13:35.113Z,2.40
2023-04-23T12:16:04.342Z,2.80
2023-04-23T12:18:57.288Z,2.40
2023-04-23T12:21:26.420Z,2.60
2023-04-23T12:23:54.571Z,2.50
2023-04-23T12:26:24.764Z,2.50
2023-04-23T12:28:53.475Z,2.90
2023-04-23T12:31:24.312Z,2.40
2023-04-23T12:34:04.841Z,2.10
2023-04-23T12:36:33.665Z,2.50
2023-04-23T12:39:19.994Z,2.50
2023-04-23T12:41:56.750Z,2.10
2023-04-23T12:44:25.138Z,2.70
2023-04-23T12:47:00.028Z,3.10
2023-04-23T12:49:28.609Z,4.00
2023-04-23T12:52:01.524Z,3.90
2023-04-23T12:54:31.738Z,2.70
2023-04-23T12:57:05.389Z,2.50
2023-04-23T12:59:34.757Z,2.90
2023-04-23T13:02:03.860Z,3.30
2023-04-23T13:04:35.264Z,5.30
2023-04-23T13:07:07.807Z,4.80
2023-04-23T13:09:36.398Z,4.00
2023-04-23T13:12:04.690Z,3.60
2023-04-23T13:14:36.335Z,2.60
2023-04-23T13:17:05.363Z,2.40
2023-04-23T13:19:35.656Z,2.50
2023-04-23T13:22:04.992Z,3.00
2023-04-23T13:24:34.443Z,3.00
2023-04-23T13:27:05.083Z,2.60
2023-04-23T13:29:34.113Z,3.40
2023-04-23T13:32:03.203Z,4.10
2023-04-23T13:34:31.929Z,3.70
2023-04-23T13:37:00.671Z,5.30
2023-04-23T13:39:28.775Z,4.20
2023-04-23T13:42:08.832Z,4.80
2023-04-23T13:44:38.095Z,4.80
2023-04-23T13:47:07.287Z,4.00
2023-04-23T13:49:36.164Z,4.20
2023-04-23T13:52:06.951Z,3.70
2023-04-23T13:54:39.406Z,3.60
2023-04-23T13:57:07.590Z,3.00
2023-04-23T13:59:35.973Z,2.80
2023-04-23T14:02:04.561Z,2.70
2023-04-23T14:04:32.733Z,3.90
2023-04-23T14:07:01.173Z,3.40
2023-04-23T14:09:30.253Z,3.10
2023-04-23T14:11:58.464Z,3.30
2023-04-23T14:14:26.668Z,3.20
2023-04-23T14:16:55.051Z,3.90
2023-04-23T14:19:24.095Z,3.70
2023-04-23T14:21:52.317Z,3.40
2023-04-23T14:24:25.410Z,3.20
2023-04-23T14:26:53.619Z,3.30
2023-04-23T14:29:25.616Z,3.30
2023-04-23T14:31:54.265Z,4.10
2023-04-23T14:34:22.494Z,3.30
2023-04-23T14:36:49.659Z,3.20
2023-04-23T14:39:17.258Z,3.60
2023-04-23T14:41:45.274Z,3.70
2023-04-23T14:44:12.325Z,3.90
2023-04-23T14:46:39.381Z,3.70
2023-04-23T14:49:06.691Z,3.20
2023-04-23T14:51:33.614Z,3.60
2023-04-23T14:54:00.621Z,3.50
2023-04-23T14:56:27.772Z,3.10
2023-04-23T14:58:54.713Z,3.00
2023-04-23T15:01:22.291Z,3.50
2023-04-23T15:03:49.461Z,4.00
2023-04-23T15:06:16.548Z,3.50
2023-04-23T15:08:43.488Z,3.90
2023-04-23T15:11:13.984Z,3.50
2023-04-23T15:13:58.006Z,3.50
2023-04-23T15:19:03.076Z,3.90
2023-04-23T15:21:29.972Z,4.20
2023-04-23T15:23:57.778Z,3.50
2023-04-23T15:26:25.976Z,3.50
2023-04-23T15:28:52.928Z,3.70
2023-04-23T15:31:19.844Z,3.60
2023-04-23T15:33:48.162Z,3.80
2023-04-23T15:36:15.101Z,3.60
2023-04-23T15:38:42.673Z,3.90
2023-04-23T15:41:09.709Z,3.00
2023-04-23T15:43:36.694Z,3.40
2023-04-23T15:46:03.574Z,3.30
2023-04-23T15:48:31.239Z,3.40
2023-04-23T15:50:59.300Z,3.50
2023-04-23T15:53:27.332Z,3.90
2023-04-23T15:55:54.220Z,3.60
2023-04-23T15:58:21.218Z,4.10
2023-04-23T16:00:48.166Z,3.70
2023-04-23T16:03:15.638Z,3.60
2023-04-23T16:05:43.771Z,3.50
2023-04-23T16:08:11.924Z,3.80
2023-04-23T16:10:38.992Z,3.70
2023-04-23T16:13:06.641Z,3.20
2023-04-23T16:15:33.564Z,3.60
2023-04-23T16:18:00.707Z,3.40
2023-04-23T16:20:28.491Z,3.60
2023-04-23T16:22:55.697Z,3.30
2023-04-23T16:25:22.835Z,3.10
2023-04-23T16:27:50.475Z,2.90
2023-04-23T16:30:17.498Z,3.10
2023-04-23T16:32:44.643Z,3.50
2023-04-23T16:35:11.720Z,4.70
2023-04-23T16:37:38.619Z,3.60
2023-04-23T16:40:06.381Z,3.60
2023-04-23T16:42:33.478Z,3.60
2023-04-23T16:45:00.570Z,3.90
2023-04-23T16:47:27.566Z,4.40
2023-04-23T16:49:54.590Z,3.70
2023-04-23T16:52:21.606Z,3.90
2023-04-23T16:54:49.649Z,4.10
2023-04-23T16:57:17.560Z,3.60
2023-04-23T16:59:44.508Z,3.40
2023-04-23T17:02:11.719Z,3.40
2023-04-23T17:04:39.697Z,3.10
2023-04-23T17:07:08.157Z,4.00
2023-04-23T17:09:35.060Z,3.90
2023-04-23T17:12:03.035Z,4.60
2023-04-23T17:14:29.908Z,5.10
2023-04-23T17:16:56.952Z,5.00
2023-04-23T17:19:23.858Z,5.00
2023-04-23T17:21:50.747Z,4.30
2023-04-23T17:24:18.405Z,4.00
2023-04-23T17:26:45.381Z,3.80
2023-04-23T17:29:13.779Z,4.20
2023-04-23T17:31:40.836Z,4.90
2023-04-23T17:34:07.918Z,4.30
2023-04-23T17:36:35.463Z,3.80
2023-04-23T17:39:03.003Z,3.60
2023-04-23T17:41:29.970Z,4.00
2023-04-23T17:43:56.904Z,4.20
2023-04-23T17:46:24.780Z,4.80
2023-04-23T17:48:51.917Z,4.70
2023-04-23T17:51:18.920Z,4.60
2023-04-23T17:53:48.775Z,4.70
2023-04-23T17:56:15.936Z,5.00
2023-04-23T17:58:42.913Z,5.20
2023-04-23T18:01:10.862Z,5.30
2023-04-23T18:03:38.367Z,6.10
2023-04-23T18:06:05.642Z,10.60
2023-04-23T18:08:32.747Z,15.20
2023-04-23T18:11:00.163Z,5.90
2023-04-23T18:13:27.064Z,5.50
2023-04-23T18:15:54.048Z,5.50
2023-04-23T18:18:22.524Z,8.20
2023-04-23T18:20:52.177Z,6.30
2023-04-23T18:23:22.409Z,7.30
2023-04-23T18:25:57.384Z,6.00
2023-04-23T18:28:24.282Z,6.60
2023-04-23T18:30:51.370Z,7.40
2023-04-23T18:33:19.505Z,7.30
2023-04-23T18:35:47.544Z,6.80
2023-04-23T18:38:47.036Z,8.10
2023-04-23T18:41:13.938Z,7.70
2023-04-23T18:43:40.894Z,7.90
2023-04-23T18:46:07.970Z,7.30
2023-04-23T18:48:35.049Z,6.90
2023-04-23T18:51:05.931Z,7.00
2023-04-23T18:53:32.870Z,7.70
2023-04-23T18:55:59.832Z,7.80
2023-04-23T18:58:27.285Z,7.70
2023-04-23T19:00:55.724Z,8.30
2023-04-23T19:03:26.836Z,7.30
2023-04-23T19:05:54.509Z,8.00
2023-04-23T19:08:22.965Z,7.50
2023-04-23T19:10:49.843Z,7.70
2023-04-23T19:13:16.802Z,7.40
2023-04-23T19:15:44.000Z,6.30
2023-04-23T19:18:11.971Z,6.50
2023-04-23T19:20:38.939Z,6.80
2023-04-23T19:23:09.119Z,6.80
2023-04-23T19:25:36.333Z,8.00
2023-04-23T19:28:03.293Z,10.00
2023-04-23T19:30:30.267Z,11.30
2023-04-23T19:32:57.270Z,10.30
2023-04-23T19:35:24.241Z,9.10
2023-04-23T19:37:51.244Z,10.70
2023-04-23T19:40:18.209Z,11.80
2023-04-23T19:42:45.098Z,13.90
2023-04-23T19:45:12.735Z,12.60
2023-04-23T19:47:40.339Z,13.30
2023-04-23T19:50:07.733Z,14.60
2023-04-23T19:52:34.784Z,14.70
2023-04-23T19:55:01.856Z,13.30
2023-04-23T19:57:28.889Z,12.50
2023-04-23T19:59:55.802Z,12.50
2023-04-23T20:02:23.342Z,13.30
2023-04-23T20:04:50.238Z,13.10
2023-04-23T20:07:17.286Z,13.20
2023-04-23T20:09:45.348Z,12.80
2023-04-23T20:12:13.873Z,12.80
2023-04-23T20:14:43.370Z,13.60
2023-04-23T20:17:10.331Z,11.90
2023-04-23T20:19:38.467Z,11.60
2023-04-23T20:22:06.223Z,10.40
2023-04-23T20:24:33.697Z,8.00
2023-04-23T20:27:01.636Z,6.80
2023-04-23T20:29:30.927Z,6.40
2023-04-23T20:31:58.254Z,7.30
2023-04-23T20:34:25.330Z,8.50
2023-04-23T20:36:52.990Z,6.80
2023-04-23T20:39:24.129Z,6.60
2023-04-23T20:41:52.583Z,5.90
2023-04-23T20:44:22.791Z,6.80
2023-04-23T20:46:50.496Z,6.50
2023-04-23T20:49:19.054Z,6.30
2023-04-23T20:51:46.909Z,6.10
2023-04-23T20:54:13.807Z,6.20
2023-04-23T20:56:40.789Z,6.90
2023-04-23T20:59:07.852Z,7.10
2023-04-23T21:01:34.912Z,7.00
2023-04-23T21:04:02.487Z,8.10
2023-04-23T21:06:31.407Z,7.50
2023-04-23T21:08:58.393Z,9.40
2023-04-23T21:11:26.951Z,11.30
2023-04-23T21:13:53.945Z,11.60
2023-04-23T21:16:21.462Z,11.50
2023-04-23T21:18:48.437Z,13.70
2023-04-23T21:21:15.498Z,13.50
2023-04-23T21:23:42.396Z,14.40
2023-04-23T21:26:09.316Z,12.90
2023-04-23T21:28:37.103Z,12.00
2023-04-23T21:31:09.176Z,11.90
2023-04-23T21:33:36.225Z,13.20
2023-04-23T21:36:03.988Z,12.80
2023-04-23T21:38:30.946Z,13.70
2023-04-23T21:40:57.906Z,13.70
2023-04-23T21:43:24.871Z,15.60
2023-04-23T21:45:51.828Z,15.10
2023-04-23T21:48:18.851Z,15.90
2023-04-23T21:50:46.059Z,15.00
2023-04-23T21:53:13.301Z,15.40
2023-04-23T21:55:41.447Z,14.80
2023-04-23T21:58:17.337Z,14.90
2023-04-23T22:00:45.519Z,16.20
2023-04-23T22:03:15.282Z,15.60
2023-04-23T22:05:54.307Z,15.90
2023-04-23T22:08:21.348Z,13.80
2023-04-23T22:10:48.201Z,15.70
2023-04-23T22:13:15.304Z,14.70
2023-04-23T22:15:43.120Z,15.90
2023-04-23T22:18:10.794Z,16.80
2023-04-23T22:20:38.374Z,16.40
2023-04-23T22:23:05.710Z,15.80
2023-04-23T22:25:32.565Z,14.60
2023-04-23T22:27:59.552Z,14.70
2023-04-23T22:30:26.430Z,15.10
2023-04-23T22:32:53.758Z,14.40
2023-04-23T22:35:20.868Z,14.50
2023-04-23T22:37:47.805Z,13.80
2023-04-23T22:40:15.292Z,15.20
2023-04-23T22:42:42.290Z,15.50
2023-04-23T22:45:09.309Z,16.20
2023-04-23T22:47:37.110Z,16.20
2023-04-23T22:50:04.444Z,16.70
2023-04-23T22:52:31.783Z,16.30
2023-04-23T22:54:59.330Z,15.50
2023-04-23T22:57:26.334Z,15.30
2023-04-23T22:59:54.203Z,15.00
2023-04-23T23:02:21.170Z,14.80
2023-04-23T23:04:48.188Z,13.80
2023-04-23T23:07:15.165Z,15.00
2023-04-23T23:09:42.928Z,14.00
2023-04-23T23:14:59.386Z,13.30
2023-04-23T23:17:26.348Z,13.20
2023-04-23T23:19:53.314Z,13.50
2023-04-23T23:22:20.509Z,12.90
2023-04-23T23:24:47.389Z,13.50
2023-04-23T23:27:14.317Z,13.30
2023-04-23T23:29:41.491Z,13.50
2023-04-23T23:32:09.325Z,12.40
2023-04-23T23:34:36.215Z,11.80
2023-04-23T23:37:03.837Z,13.20
2023-04-23T23:39:30.906Z,12.80
2023-04-23T23:41:59.552Z,11.60
2023-04-23T23:44:27.458Z,11.40
2023-04-23T23:46:54.441Z,12.70
2023-04-23T23:49:21.679Z,11.70
2023-04-23T23:51:49.793Z,11.70
2023-04-23T23:54:17.352Z,11.60
2023-04-23T23:56:44.263Z,12.00
2023-04-23T23:59:11.334Z,11.40
